Time;durP1;ratioP1;P1;durP2;ratioP2;P2;SDS_P1;SDS_P2;PMS_P1;PMS_P2;Temp;Humidity;BMP_temperature;BMP_pressure;BME280_temperature;BME280_humidity;BME280_pressure;Samples;Min_cycle;Max_cycle;Signal;HPM_P1;HPM_P2
2023/12/21 00:02:03;;;;;;;1.92;0.90;;;10.60;51.90;;;;;;7782322;22;20007;-75
2023/12/21 00:05:05;;;;;;;2.38;1.38;;;10.70;51.90;;;;;;7782962;22;20298;-76
2023/12/21 00:08:06;;;;;;;1.20;0.90;;;10.70;51.90;;;;;;7785289;22;20003;-76
2023/12/21 00:11:07;;;;;;;1.17;1.08;;;10.80;51.90;;;;;;7784627;22;20011;-76
2023/12/21 00:14:10;;;;;;;2.25;1.42;;;10.80;51.80;;;;;;7784936;22;20408;-74
2023/12/21 00:17:11;;;;;;;2.95;1.38;;;10.80;51.70;;;;;;7760756;22;20023;-77
2023/12/21 00:20:12;;;;;;;13.00;2.33;;;10.80;51.70;;;;;;7785195;22;20036;-75
2023/12/21 00:23:13;;;;;;;1.60;1.05;;;10.80;51.80;;;;;;7785413;22;20060;-76
2023/12/21 00:26:14;;;;;;;7.40;1.90;;;10.70;51.80;;;;;;7812553;22;20010;-77
2023/12/21 00:29:15;;;;;;;1.58;1.08;;;10.70;52.00;;;;;;7758219;22;20074;-76
2023/12/21 00:32:16;;;;;;;6.93;1.15;;;10.70;52.10;;;;;;7784573;22;20011;-76
2023/12/21 00:35:17;;;;;;;1.95;0.93;;;10.60;52.10;;;;;;7734725;22;20429;-76
2023/12/21 00:38:18;;;;;;;3.95;1.45;;;10.60;52.30;;;;;;7759106;22;20271;-76
2023/12/21 00:41:19;;;;;;;0.82;0.75;;;10.60;52.40;;;;;;7784568;22;19999;-77
2023/12/21 00:44:19;;;;;;;4.10;1.30;;;10.60;52.60;;;;;;7784381;22;20341;-76
2023/12/21 00:47:21;;;;;;;1.58;0.98;;;10.60;52.60;;;;;;7783556;22;20003;-78
2023/12/21 00:50:22;;;;;;;2.72;1.13;;;10.60;52.70;;;;;;7813244;22;20074;-75
2023/12/21 00:53:24;;;;;;;2.45;1.20;;;10.50;53.00;;;;;;7784771;22;20601;-75
2023/12/21 00:56:26;;;;;;;4.32;1.80;;;10.50;53.30;;;;;;7758692;22;20003;-76
2023/12/21 00:59:27;;;;;;;1.65;1.20;;;10.50;53.50;;;;;;7758522;22;20011;-77
2023/12/21 01:02:29;;;;;;;4.90;1.85;;;10.40;53.60;;;;;;7784801;22;20298;-76
2023/12/21 01:05:30;;;;;;;1.42;0.88;;;10.50;53.70;;;;;;7758930;22;20003;-75
2023/12/21 01:08:31;;;;;;;9.07;1.63;;;10.40;53.70;;;;;;7734058;22;20432;-75
2023/12/21 01:11:32;;;;;;;3.53;1.58;;;10.50;53.70;;;;;;7812555;22;20511;-75
2023/12/21 01:14:33;;;;;;;1.48;0.70;;;10.50;53.70;;;;;;7784908;22;20106;-76
2023/12/21 01:17:35;;;;;;;2.38;1.25;;;10.50;53.70;;;;;;7784473;22;20392;-76
2023/12/21 01:20:36;;;;;;;0.65;0.65;;;10.50;53.70;;;;;;7812224;22;19998;-75
2023/12/21 01:23:37;;;;;;;1.17;0.85;;;10.50;53.70;;;;;;7812858;22;20310;-77
2023/12/21 01:26:38;;;;;;;2.72;0.93;;;10.50;53.80;;;;;;7784567;22;20007;-76
2023/12/21 01:29:40;;;;;;;6.03;1.10;;;10.40;53.70;;;;;;7758142;22;20443;-74
2023/12/21 01:32:41;;;;;;;0.80;0.70;;;10.40;53.60;;;;;;7758447;22;20116;-75
2023/12/21 01:35:42;;;;;;;3.20;2.03;;;10.40;53.70;;;;;;7758594;22;20372;-75
2023/12/21 01:38:44;;;;;;;5.15;1.63;;;10.30;53.90;;;;;;7757441;22;20390;-76
2023/12/21 01:41:46;;;;;;;3.17;0.98;;;10.30;54.10;;;;;;7784400;22;20014;-77
2023/12/21 01:44:47;;;;;;;3.60;1.17;;;10.30;54.30;;;;;;7784607;22;20003;-77
2023/12/21 01:47:49;;;;;;;2.55;1.90;;;10.30;54.30;;;;;;7783403;22;20073;-75
2023/12/21 01:50:51;;;;;;;4.60;1.52;;;10.30;54.30;;;;;;7783521;22;20003;-76
2023/12/21 01:53:53;;;;;;;1.85;1.40;;;10.30;54.20;;;;;;7784575;22;20003;-74
2023/12/21 01:56:54;;;;;;;8.82;2.90;;;10.30;54.20;;;;;;7812727;22;20392;-76
2023/12/21 01:59:55;;;;;;;3.58;0.90;;;10.30;54.20;;;;;;7784530;22;20015;-75
2023/12/21 02:02:59;;;;;;;1.20;0.88;;;10.40;54.20;;;;;;7782084;22;20639;-76
2023/12/21 02:06:01;;;;;;;2.65;1.13;;;10.40;54.10;;;;;;7810409;22;20086;-76
2023/12/21 02:09:02;;;;;;;19.58;1.25;;;10.40;54.00;;;;;;7782926;22;19999;-76
2023/12/21 02:12:03;;;;;;;1.73;1.15;;;10.40;53.80;;;;;;7758599;22;20052;-76
2023/12/21 02:15:06;;;;;;;4.28;1.95;;;10.40;53.70;;;;;;7782675;22;20086;-74
2023/12/21 02:18:09;;;;;;;2.42;1.38;;;10.40;53.60;;;;;;7783864;22;20021;-76
2023/12/21 02:21:11;;;;;;;4.55;1.92;;;10.30;53.70;;;;;;7810778;22;20398;-76
2023/12/21 02:24:16;;;;;;;3.47;1.30;;;10.30;54.00;;;;;;7757699;22;20027;-77
2023/12/21 02:27:17;;;;;;;5.15;2.45;;;10.20;54.20;;;;;;7783071;22;20003;-77
2023/12/21 02:30:19;;;;;;;1.70;1.30;;;10.10;54.40;;;;;;7810912;22;20144;-77
2023/12/21 02:33:20;;;;;;;1.83;1.50;;;10.00;54.50;;;;;;7783972;22;20011;-76
2023/12/21 02:36:20;;;;;;;4.80;1.77;;;10.00;54.70;;;;;;7783881;22;20010;-76
2023/12/21 02:39:21;;;;;;;1.00;0.88;;;10.00;54.80;;;;;;7783158;22;20013;-75
2023/12/21 02:42:22;;;;;;;4.10;1.05;;;9.90;54.80;;;;;;7783430;22;20006;-74
2023/12/21 02:45:23;;;;;;;2.65;1.23;;;9.90;54.80;;;;;;7783182;22;20721;-75
2023/12/21 02:48:24;;;;;;;5.68;1.83;;;10.00;54.90;;;;;;7783857;22;20006;-75
2023/12/21 02:51:24;;;;;;;9.10;1.90;;;10.00;55.50;;;;;;7785412;22;20156;-75
2023/12/21 02:54:27;;;;;;;1.80;1.15;;;10.00;54.80;;;;;;7812681;22;20006;-77
2023/12/21 02:57:29;;;;;;;3.38;1.30;;;10.00;54.80;;;;;;7812188;22;19995;-75
2023/12/21 03:00:29;;;;;;;9.20;2.05;;;10.10;54.70;;;;;;7812467;22;19995;-76
2023/12/21 03:03:31;;;;;;;1.95;0.95;;;10.10;55.20;;;;;;7757844;22;20037;-76
2023/12/21 03:06:32;;;;;;;4.15;1.42;;;10.20;54.50;;;;;;7783617;22;20122;-75
2023/12/21 03:09:33;;;;;;;2.72;1.60;;;10.20;54.50;;;;;;7782773;22;20007;-76
2023/12/21 03:12:35;;;;;;;2.33;1.33;;;10.30;54.50;;;;;;7758388;22;20507;-76
2023/12/21 03:15:36;;;;;;;1.30;1.08;;;10.30;54.40;;;;;;7783252;22;19996;-76
2023/12/21 03:18:37;;;;;;;2.10;1.25;;;10.30;54.30;;;;;;7757688;22;20297;-77
2023/12/21 03:21:37;;;;;;;1.58;1.13;;;10.30;54.20;;;;;;7782394;22;19999;-77
2023/12/21 03:24:39;;;;;;;2.13;1.25;;;10.30;54.10;;;;;;7756621;22;20058;-76
2023/12/21 03:27:41;;;;;;;3.30;2.22;;;10.30;54.10;;;;;;7809995;22;20110;-76
2023/12/21 03:30:43;;;;;;;0.93;0.90;;;10.30;53.80;;;;;;7782951;22;20003;-76
2023/12/21 03:33:44;;;;;;;7.43;1.23;;;10.30;53.90;;;;;;7757326;22;20015;-76
2023/12/21 03:36:46;;;;;;;1.60;1.27;;;10.20;53.90;;;;;;7810569;22;20009;-75
2023/12/21 03:39:47;;;;;;;3.15;1.52;;;10.20;53.80;;;;;;7732879;22;20003;-75
2023/12/21 03:42:51;;;;;;;2.03;1.30;;;10.20;53.80;;;;;;7756966;22;20068;-76
2023/12/21 03:45:52;;;;;;;4.72;1.27;;;10.20;53.70;;;;;;7811069;22;20027;-77
2023/12/21 03:48:53;;;;;;;9.23;1.77;;;10.20;53.80;;;;;;7783645;22;20407;-76
2023/12/21 03:51:58;;;;;;;2.78;1.45;;;10.20;53.80;;;;;;7783399;22;20019;-76
2023/12/21 03:54:58;;;;;;;3.97;1.08;;;10.10;53.70;;;;;;7752234;22;20043;-75
2023/12/21 03:57:59;;;;;;;6.75;1.15;;;10.10;53.80;;;;;;7810838;22;20003;-76
2023/12/21 04:01:00;;;;;;;1.38;0.88;;;10.10;53.90;;;;;;7757458;22;20271;-75
2023/12/21 04:04:03;;;;;;;2.00;1.40;;;10.00;53.90;;;;;;7811149;22;19995;-76
2023/12/21 04:07:04;;;;;;;2.33;1.63;;;10.00;54.10;;;;;;7756949;22;20007;-76
2023/12/21 04:10:05;;;;;;;2.28;1.08;;;9.80;54.20;;;;;;7782356;22;20003;-76
2023/12/21 04:13:06;;;;;;;8.98;1.88;;;9.80;54.50;;;;;;7781260;22;20011;-76
2023/12/21 04:16:06;;;;;;;1.65;1.27;;;9.70;54.50;;;;;;7782979;22;20003;-76
2023/12/21 04:19:07;;;;;;;2.40;1.08;;;9.70;54.60;;;;;;7810468;22;20007;-75
2023/12/21 04:22:08;;;;;;;2.60;1.10;;;9.70;54.60;;;;;;7783649;22;20030;-75
2023/12/21 04:25:10;;;;;;;9.88;1.95;;;9.80;54.60;;;;;;7783282;22;20061;-74
2023/12/21 04:28:11;;;;;;;1.58;1.27;;;9.80;54.50;;;;;;7782877;22;20031;-76
2023/12/21 04:31:23;;;;;;;25.73;10.38;;;9.80;54.50;;;;;;7782630;22;20317;-75
2023/12/21 04:34:24;;;;;;;1.52;1.45;;;9.90;54.60;;;;;;7775186;22;20030;-75
2023/12/21 04:37:25;;;;;;;1.60;0.95;;;9.90;54.60;;;;;;7811276;22;20102;-74
2023/12/21 04:40:26;;;;;;;1.40;0.80;;;9.80;54.70;;;;;;7810170;22;20111;-77
2023/12/21 04:43:28;;;;;;;1.85;1.25;;;9.80;54.70;;;;;;7756617;22;20383;-75
2023/12/21 04:46:30;;;;;;;1.67;1.05;;;9.90;54.70;;;;;;7757420;22;20458;-76
2023/12/21 04:49:31;;;;;;;2.15;0.85;;;9.90;54.70;;;;;;7810860;22;20007;-75
2023/12/21 04:52:32;;;;;;;4.68;1.08;;;9.90;54.80;;;;;;7782328;22;20030;-75
2023/12/21 04:55:33;;;;;;;2.13;1.23;;;9.80;54.70;;;;;;7813407;22;20051;-76
2023/12/21 04:58:37;;;;;;;1.23;1.05;;;9.80;54.80;;;;;;7784467;22;20021;-76
2023/12/21 05:01:40;;;;;;;3.35;1.73;;;9.80;54.90;;;;;;7784950;22;20051;-76
2023/12/21 05:04:41;;;;;;;1.48;1.25;;;9.70;54.80;;;;;;7784963;22;20037;-76
2023/12/21 05:07:42;;;;;;;5.80;1.77;;;9.70;55.00;;;;;;7813480;22;20433;-75
2023/12/21 05:10:43;;;;;;;2.05;1.02;;;9.70;55.10;;;;;;7759087;22;20018;-77
2023/12/21 05:13:45;;;;;;;3.60;2.33;;;9.60;55.30;;;;;;7784754;22;20011;-76
2023/12/21 05:16:45;;;;;;;2.75;1.55;;;9.60;55.40;;;;;;7785760;22;20128;-76
2023/12/21 05:19:46;;;;;;;2.92;1.23;;;9.60;55.60;;;;;;7785124;22;20081;-76
2023/12/21 05:22:48;;;;;;;1.27;1.02;;;9.60;55.70;;;;;;7785761;22;20420;-76
2023/12/21 05:25:48;;;;;;;3.42;1.30;;;9.60;55.70;;;;;;7759762;22;20113;-76
2023/12/21 05:28:50;;;;;;;2.58;1.52;;;9.60;55.80;;;;;;7759870;22;20081;-77
2023/12/21 05:31:50;;;;;;;3.78;1.45;;;9.60;55.80;;;;;;7784239;22;20015;-77
2023/12/21 05:34:52;;;;;;;6.30;2.63;;;9.60;55.80;;;;;;7784863;22;20007;-76
2023/12/21 05:37:53;;;;;;;7.10;2.13;;;9.60;55.80;;;;;;7812058;22;20019;-75
2023/12/21 05:40:54;;;;;;;7.85;2.42;;;9.60;55.80;;;;;;7758733;22;20428;-75
2023/12/21 05:43:55;;;;;;;3.65;1.52;;;9.70;55.90;;;;;;7784500;22;20003;-76
2023/12/21 05:46:56;;;;;;;3.28;2.17;;;9.60;55.80;;;;;;7758592;22;19999;-75
2023/12/21 05:49:58;;;;;;;2.80;1.55;;;9.60;55.80;;;;;;7812788;22;20029;-76
2023/12/21 05:52:59;;;;;;;3.90;1.70;;;9.60;55.80;;;;;;7758625;22;20026;-75
2023/12/21 05:56:00;;;;;;;4.10;1.63;;;9.60;55.90;;;;;;7811428;22;19999;-75
2023/12/21 05:59:02;;;;;;;2.22;1.38;;;9.60;55.90;;;;;;7758562;22;20085;-74
2023/12/21 06:02:04;;;;;;;6.15;1.80;;;9.50;55.90;;;;;;7784156;22;20005;-76
2023/12/21 06:05:06;;;;;;;3.90;1.98;;;9.50;55.90;;;;;;7812247;22;20003;-75
2023/12/21 06:08:07;;;;;;;3.42;1.80;;;9.50;56.00;;;;;;7758736;22;20007;-76
2023/12/21 06:11:08;;;;;;;7.80;3.00;;;9.50;56.00;;;;;;7758750;22;20397;-76
2023/12/21 06:14:09;;;;;;;1.65;1.35;;;9.50;56.10;;;;;;7733556;22;20019;-77
2023/12/21 06:17:11;;;;;;;3.03;2.20;;;9.50;56.10;;;;;;7759446;22;20061;-77
2023/12/21 06:20:11;;;;;;;2.35;1.75;;;9.50;56.00;;;;;;7783192;22;20335;-76
2023/12/21 06:23:13;;;;;;;3.63;2.22;;;9.50;55.90;;;;;;7783478;22;20063;-76
2023/12/21 06:26:15;;;;;;;3.30;1.63;;;9.60;56.00;;;;;;7783626;22;20465;-79
2023/12/21 06:29:16;;;;;;;3.08;2.15;;;9.50;56.00;;;;;;7780081;22;20018;-76
2023/12/21 06:32:18;;;;;;;3.08;2.00;;;9.50;56.00;;;;;;7804108;22;20007;-75
2023/12/21 06:35:20;;;;;;;5.95;1.73;;;9.60;56.10;;;;;;7779205;22;20039;-76
2023/12/21 06:38:20;;;;;;;5.47;1.88;;;9.60;56.10;;;;;;7807141;22;20430;-76
2023/12/21 06:41:22;;;;;;;9.30;1.65;;;9.60;56.20;;;;;;7778941;22;20325;-76
2023/12/21 06:44:24;;;;;;;8.35;2.22;;;9.50;56.20;;;;;;7779719;22;20060;-76
2023/12/21 06:47:25;;;;;;;7.97;1.63;;;9.50;56.30;;;;;;7807888;22;20003;-76
2023/12/21 06:50:26;;;;;;;3.67;1.67;;;9.40;56.40;;;;;;7754335;22;20305;-76
2023/12/21 06:53:27;;;;;;;4.28;2.10;;;9.40;56.60;;;;;;7780173;22;20490;-75
2023/12/21 06:56:28;;;;;;;4.22;1.73;;;9.40;56.70;;;;;;7810187;22;20003;-76
2023/12/21 06:59:30;;;;;;;4.65;2.08;;;9.40;56.70;;;;;;7778466;22;20381;-76
2023/12/21 07:02:30;;;;;;;1.95;1.75;;;9.40;56.70;;;;;;7754081;22;20007;-78
2023/12/21 07:05:31;;;;;;;2.05;1.42;;;9.30;56.60;;;;;;7780481;22;20014;-76
2023/12/21 07:08:33;;;;;;;1.88;1.38;;;9.40;56.70;;;;;;7807928;22;20200;-76
2023/12/21 07:11:34;;;;;;;1.95;1.75;;;9.30;56.80;;;;;;7806832;22;20034;-77
2023/12/21 07:14:38;;;;;;;2.47;1.55;;;9.20;57.00;;;;;;7780100;22;20619;-78
2023/12/21 07:17:40;;;;;;;4.57;1.80;;;9.20;57.20;;;;;;7780564;22;20065;-78
2023/12/21 07:20:43;;;;;;;8.90;1.77;;;9.10;57.20;;;;;;7754258;22;20007;-78
2023/12/21 07:23:46;;;;;;;8.05;1.52;;;9.20;57.30;;;;;;7778535;22;20030;-76
2023/12/21 07:26:48;;;;;;;2.97;2.33;;;9.10;57.30;;;;;;7753979;22;20023;-76
2023/12/21 07:29:50;;;;;;;2.60;1.63;;;9.10;57.30;;;;;;7778286;22;20007;-76
2023/12/21 07:32:51;;;;;;;4.57;1.58;;;9.10;57.30;;;;;;7783322;22;20417;-77
2023/12/21 07:35:52;;;;;;;6.45;2.30;;;9.20;57.30;;;;;;7810294;22;19995;-78
2023/12/21 07:38:54;;;;;;;4.85;1.92;;;9.20;57.20;;;;;;7810628;22;20380;-77
2023/12/21 07:41:55;;;;;;;3.50;1.88;;;9.30;57.10;;;;;;7782469;22;20455;-76
2023/12/21 07:44:56;;;;;;;18.13;4.35;;;9.40;57.00;;;;;;7809496;22;20057;-76
2023/12/21 07:47:59;;;;;;;5.32;1.63;;;9.40;56.70;;;;;;7755812;22;20007;-77
2023/12/21 07:51:00;;;;;;;2.88;1.92;;;9.40;56.70;;;;;;7757261;22;20010;-77
2023/12/21 07:54:02;;;;;;;2.33;1.50;;;9.50;56.70;;;;;;7783542;22;20633;-77
2023/12/21 07:57:03;;;;;;;4.20;1.75;;;9.50;56.60;;;;;;7811102;22;20019;-78
2023/12/21 08:00:06;;;;;;;4.60;1.92;;;9.50;56.50;;;;;;7810267;22;20049;-77
2023/12/21 08:03:10;;;;;;;9.95;3.08;;;9.50;56.50;;;;;;7783109;22;20009;-76
2023/12/21 08:06:20;;;;;;;4.05;2.30;;;9.50;56.60;;;;;;7758125;22;20003;-77
2023/12/21 08:09:23;;;;;;;5.03;2.15;;;9.50;56.60;;;;;;7784207;22;20960;-76
2023/12/21 08:12:25;;;;;;;4.35;2.00;;;9.50;56.50;;;;;;7784053;22;20008;-76
2023/12/21 08:15:27;;;;;;;3.55;1.25;;;9.60;56.40;;;;;;7784156;22;20329;-77
2023/12/21 08:18:30;;;;;;;11.63;2.63;;;9.60;56.40;;;;;;7784724;22;20030;-78
2023/12/21 08:21:31;;;;;;;4.65;2.35;;;9.60;56.50;;;;;;7758963;22;20038;-78
2023/12/21 08:24:33;;;;;;;3.20;2.33;;;9.60;56.40;;;;;;7784488;22;20132;-78
2023/12/21 08:27:34;;;;;;;5.43;2.42;;;9.70;56.40;;;;;;7758442;22;20035;-77
2023/12/21 08:30:39;;;;;;;15.73;2.50;;;9.80;56.30;;;;;;7787267;22;20094;-78
2023/12/21 08:33:41;;;;;;;5.25;2.72;;;9.80;56.10;;;;;;7785993;22;20021;-78
2023/12/21 08:36:42;;;;;;;9.02;2.25;;;9.90;56.20;;;;;;7814271;22;20011;-77
2023/12/21 08:39:44;;;;;;;4.13;2.17;;;10.00;56.00;;;;;;7785307;22;20041;-78
2023/12/21 08:42:45;;;;;;;9.35;3.25;;;10.10;55.80;;;;;;7786086;22;20012;-79
2023/12/21 08:45:47;;;;;;;15.93;3.15;;;10.10;55.60;;;;;;7735108;22;20003;-78
2023/12/21 08:48:48;;;;;;;9.20;3.10;;;10.20;55.60;;;;;;7785731;22;20085;-77
2023/12/21 08:51:52;;;;;;;3.00;1.80;;;10.20;55.50;;;;;;7761011;22;20411;-76
2023/12/21 08:54:54;;;;;;;5.30;2.30;;;10.10;55.10;;;;;;7785696;22;20014;-76
2023/12/21 08:57:59;;;;;;;9.13;2.72;;;10.30;55.10;;;;;;7786919;22;20015;-78
2023/12/21 09:01:00;;;;;;;5.50;3.70;;;10.30;55.00;;;;;;7785562;22;20613;-77
2023/12/21 09:04:02;;;;;;;5.47;2.63;;;10.30;54.90;;;;;;7784524;22;20047;-77
2023/12/21 09:07:04;;;;;;;4.45;3.03;;;10.40;54.90;;;;;;7759979;22;20018;-75
2023/12/21 09:10:06;;;;;;;9.57;2.85;;;10.40;54.80;;;;;;7784091;22;19995;-78
2023/12/21 09:13:07;;;;;;;9.13;3.42;;;10.40;54.80;;;;;;7784728;22;20019;-77
2023/12/21 09:16:09;;;;;;;9.05;3.85;;;10.50;54.80;;;;;;7785445;22;20086;-76
2023/12/21 09:19:10;;;;;;;7.32;3.58;;;10.50;54.80;;;;;;7813474;22;20258;-76
2023/12/21 09:22:11;;;;;;;6.93;3.25;;;10.70;54.80;;;;;;7784460;22;20007;-77
2023/12/21 09:25:12;;;;;;;22.40;7.55;;;10.80;54.40;;;;;;7758941;22;20412;-78
2023/12/21 09:28:14;;;;;;;6.85;3.38;;;10.90;54.00;;;;;;7784502;22;20451;-78
2023/12/21 09:31:15;;;;;;;4.75;2.13;;;11.00;53.80;;;;;;7784932;22;20019;-78
2023/12/21 09:34:17;;;;;;;9.93;3.88;;;11.10;53.60;;;;;;7733253;22;20007;-77
2023/12/21 09:37:18;;;;;;;5.63;2.45;;;11.20;53.50;;;;;;7784563;22;19999;-77
2023/12/21 09:40:20;;;;;;;4.57;2.97;;;11.30;53.10;;;;;;7784384;22;20017;-77
2023/12/21 09:43:22;;;;;;;12.05;2.75;;;11.30;52.90;;;;;;7785603;22;20263;-76
2023/12/21 09:46:27;;;;;;;7.72;3.20;;;11.30;53.10;;;;;;7784724;22;20086;-77
2023/12/21 09:49:36;;;;;;;8.32;3.38;;;11.50;53.10;;;;;;7758795;22;20014;-76
2023/12/21 09:52:39;;;;;;;;;;;11.60;53.10;;;;;;7787013;22;20015;-77
2023/12/21 09:55:46;;;;;;;10.75;3.47;;;11.70;52.50;;;;;;7759479;22;19910;-78
2023/12/21 09:58:50;;;;;;;6.25;2.67;;;11.70;52.20;;;;;;7766583;22;20007;-77
2023/12/21 10:01:51;;;;;;;5.75;2.55;;;11.70;52.30;;;;;;7783824;22;20058;-78
2023/12/21 10:04:52;;;;;;;7.40;2.42;;;11.80;52.40;;;;;;7782816;22;20015;-75
2023/12/21 10:07:53;;;;;;;4.88;2.63;;;11.90;52.40;;;;;;7782452;22;20531;-77
2023/12/21 10:10:55;;;;;;;9.15;2.40;;;12.00;52.00;;;;;;7782157;22;20015;-78
2023/12/21 10:13:57;;;;;;;5.38;2.50;;;12.10;51.80;;;;;;7812022;22;20003;-77
2023/12/21 10:17:01;;;;;;;11.75;3.03;;;12.10;51.50;;;;;;7783612;22;20082;-77
2023/12/21 10:20:03;;;;;;;4.10;2.40;;;12.10;51.40;;;;;;7811214;22;19996;-77
2023/12/21 10:23:04;;;;;;;4.90;2.75;;;12.10;51.50;;;;;;7784525;22;20003;-79
2023/12/21 10:26:06;;;;;;;6.22;3.22;;;12.10;51.80;;;;;;7784134;22;20034;-77
2023/12/21 10:29:07;;;;;;;6.20;2.70;;;12.10;52.00;;;;;;7811780;22;20074;-78
2023/12/21 10:32:09;;;;;;;7.13;3.05;;;12.10;52.10;;;;;;7782368;22;20015;-76
2023/12/21 10:35:11;;;;;;;4.85;2.40;;;12.10;52.20;;;;;;7758252;22;20401;-78
2023/12/21 10:38:11;;;;;;;5.72;2.85;;;12.00;52.40;;;;;;7732297;22;20137;-77
2023/12/21 10:41:12;;;;;;;5.07;2.65;;;12.00;52.70;;;;;;7782996;22;19996;-76
2023/12/21 10:44:15;;;;;;;7.07;2.50;;;12.00;53.00;;;;;;7757126;22;20018;-78
2023/12/21 10:47:16;;;;;;;6.10;2.47;;;12.00;53.20;;;;;;7783545;22;19999;-78
2023/12/21 10:50:19;;;;;;;3.65;2.00;;;12.10;53.40;;;;;;7757201;22;20003;-77
2023/12/21 10:53:22;;;;;;;10.45;1.83;;;12.20;53.50;;;;;;7810820;22;20015;-78
2023/12/21 10:56:27;;;;;;;9.23;3.92;;;12.10;53.50;;;;;;7782513;22;20027;-78
2023/12/21 10:59:29;;;;;;;5.45;2.95;;;12.20;53.50;;;;;;7782920;22;19995;-76
2023/12/21 11:02:30;;;;;;;11.38;2.88;;;12.10;53.50;;;;;;7756618;22;20157;-78
2023/12/21 11:05:33;;;;;;;8.18;3.22;;;12.10;53.60;;;;;;7782119;22;20071;-77
2023/12/21 11:08:37;;;;;;;9.35;2.83;;;12.00;53.80;;;;;;7783215;22;20003;-77
2023/12/21 11:11:39;;;;;;;12.65;3.22;;;12.00;53.80;;;;;;7783603;22;20094;-78
2023/12/21 11:14:40;;;;;;;7.57;3.25;;;12.00;54.00;;;;;;7810497;22;20018;-76
2023/12/21 11:17:48;;;;;;;8.77;4.07;;;12.00;54.20;;;;;;7781662;22;20018;-78
2023/12/21 11:20:55;;;;;;;9.95;4.03;;;12.10;54.40;;;;;;7756895;22;20015;-77
2023/12/21 11:23:57;;;;;;;14.38;5.68;;;12.10;54.70;;;;;;7782421;22;20025;-77
2023/12/21 11:27:00;;;;;;;9.30;3.75;;;12.00;54.90;;;;;;7811426;22;20052;-78
2023/12/21 11:30:14;;;;;;;19.85;6.18;;;12.00;55.10;;;;;;7781438;22;20025;-77
2023/12/21 11:33:15;;;;;;;18.73;4.78;;;11.90;55.40;;;;;;7781836;22;20072;-77
2023/12/21 11:36:25;;;;;;;15.88;3.88;;;11.90;55.40;;;;;;7756608;22;20003;-78
2023/12/21 11:39:28;;;;;;;10.57;4.22;;;11.80;55.50;;;;;;7810841;22;19995;-76
2023/12/21 11:42:35;;;;;;;12.70;5.50;;;11.70;55.60;;;;;;7781832;22;20078;-77
2023/12/21 11:45:38;;;;;;;8.05;4.57;;;11.70;55.70;;;;;;7756882;22;20003;-78
2023/12/21 11:48:39;;;;;;;16.98;5.70;;;11.70;55.80;;;;;;7810625;22;20110;-79
2023/12/21 11:51:48;;;;;;;10.32;4.65;;;11.80;55.90;;;;;;7810531;22;20398;-78
2023/12/21 11:54:49;;;;;;;4.97;3.15;;;11.80;55.80;;;;;;7782727;22;20052;-77
2023/12/21 11:58:07;;;;;;;10.18;3.78;;;11.70;55.70;;;;;;7756945;22;20011;-77
2023/12/21 12:01:20;;;;;;;8.98;3.47;;;11.80;55.70;;;;;;7732081;22;20007;-75
2023/12/21 12:04:21;;;;;;;6.95;3.95;;;11.70;55.70;;;;;;7784399;22;20088;-78
2023/12/21 12:07:24;;;;;;;7.25;3.30;;;11.90;55.70;;;;;;7785311;22;20003;-77
2023/12/21 12:10:27;;;;;;;11.88;4.28;;;11.90;55.50;;;;;;7784214;22;19999;-79
2023/12/21 12:13:29;;;;;;;11.25;4.10;;;11.90;55.50;;;;;;7758836;22;20090;-78
2023/12/21 12:16:33;;;;;;;5.25;2.92;;;12.00;55.70;;;;;;7813145;22;19995;-79
2023/12/21 12:19:37;;;;;;;7.40;4.18;;;12.00;55.70;;;;;;7784783;22;20018;-79
2023/12/21 12:22:38;;;;;;;4.80;3.00;;;12.00;55.80;;;;;;7759138;22;20409;-77
2023/12/21 12:25:39;;;;;;;8.82;4.00;;;12.00;56.00;;;;;;7760312;22;20094;-80
2023/12/21 12:28:40;;;;;;;4.20;2.42;;;12.00;56.20;;;;;;7812324;22;19995;-77
2023/12/21 12:31:43;;;;;;;11.65;3.03;;;11.90;56.20;;;;;;7784818;22;20011;-79
2023/12/21 12:34:44;;;;;;;7.63;3.30;;;11.80;56.30;;;;;;7760223;22;19999;-78
2023/12/21 12:37:48;;;;;;;15.30;4.53;;;11.70;56.50;;;;;;7785134;22;20006;-79
2023/12/21 12:40:50;;;;;;;15.55;4.40;;;11.60;56.70;;;;;;7784350;22;19995;-79
2023/12/21 12:43:53;;;;;;;12.52;4.13;;;11.70;56.80;;;;;;7785452;22;20003;-78
2023/12/21 12:46:54;;;;;;;11.00;4.40;;;11.70;56.90;;;;;;7759690;22;20019;-78
2023/12/21 12:49:58;;;;;;;17.52;5.68;;;11.70;56.90;;;;;;7785424;22;20003;-77
2023/12/21 12:53:03;;;;;;;13.93;5.45;;;11.70;56.90;;;;;;7760411;22;20121;-79
2023/12/21 12:56:05;;;;;;;14.63;6.25;;;11.70;57.20;;;;;;7784542;22;20380;-79
2023/12/21 12:59:07;;;;;;;7.88;3.65;;;11.60;57.40;;;;;;7759492;22;20425;-77
2023/12/21 13:02:08;;;;;;;10.45;4.35;;;11.60;57.70;;;;;;7785173;22;20389;-79
2023/12/21 13:05:10;;;;;;;10.25;3.63;;;11.50;57.70;;;;;;7759991;22;20102;-76
2023/12/21 13:08:11;;;;;;;15.05;5.93;;;11.50;58.10;;;;;;7758158;22;20520;-78
2023/12/21 13:11:12;;;;;;;13.20;5.38;;;11.40;58.20;;;;;;7785766;22;20195;-77
2023/12/21 13:14:15;;;;;;;10.00;4.90;;;11.40;58.50;;;;;;7784303;22;20469;-79
2023/12/21 13:17:16;;;;;;;12.30;5.35;;;11.40;58.70;;;;;;7758650;22;20329;-77
2023/12/21 13:20:17;;;;;;;6.70;3.58;;;11.40;59.00;;;;;;7758574;22;20034;-78
2023/12/21 13:23:19;;;;;;;8.68;4.13;;;11.50;59.20;;;;;;7812792;22;20066;-78
2023/12/21 13:26:20;;;;;;;8.27;4.07;;;11.40;59.30;;;;;;7811742;22;20035;-79
2023/12/21 13:29:21;;;;;;;7.60;4.35;;;11.40;59.50;;;;;;7783648;22;20416;-78
2023/12/21 13:32:23;;;;;;;14.93;4.90;;;11.40;59.80;;;;;;7758709;22;20019;-77
2023/12/21 13:35:26;;;;;;;9.25;4.18;;;11.30;60.00;;;;;;7784197;22;20090;-77
2023/12/21 13:38:27;;;;;;;23.58;5.72;;;11.40;60.20;;;;;;7783945;22;20720;-78
2023/12/21 13:41:28;;;;;;;15.90;4.00;;;11.40;60.30;;;;;;7758285;22;20003;-78
2023/12/21 13:44:30;;;;;;;11.95;4.25;;;11.50;60.50;;;;;;7783564;22;20026;-77
2023/12/21 13:47:35;;;;;;;7.00;3.53;;;11.50;60.50;;;;;;7783926;22;19996;-77
2023/12/21 13:50:37;;;;;;;8.05;3.92;;;11.50;60.70;;;;;;7783747;22;20429;-78
2023/12/21 13:53:37;;;;;;;10.77;3.88;;;11.50;60.80;;;;;;7811886;22;20109;-78
2023/12/21 13:56:38;;;;;;;9.73;5.20;;;11.50;61.00;;;;;;7811358;22;19999;-78
2023/12/21 13:59:39;;;;;;;11.20;4.90;;;11.40;61.40;;;;;;7782514;22;20293;-77
2023/12/21 14:02:41;;;;;;;11.95;4.47;;;11.50;61.80;;;;;;7783609;22;20333;-77
2023/12/21 14:05:43;;;;;;;7.75;4.20;;;11.50;61.90;;;;;;7810347;22;20609;-78
2023/12/21 14:08:45;;;;;;;8.35;4.18;;;11.50;62.10;;;;;;7782829;22;20007;-76
2023/12/21 14:11:46;;;;;;;9.80;4.68;;;11.50;62.30;;;;;;7752357;22;20409;-78
2023/12/21 14:14:49;;;;;;;5.57;4.00;;;11.50;62.50;;;;;;7753640;22;20003;-78
2023/12/21 14:17:53;;;;;;;14.43;3.25;;;11.50;62.70;;;;;;7732114;22;20003;-77
2023/12/21 14:20:56;;;;;;;9.48;4.63;;;11.50;62.50;;;;;;7757460;22;19999;-78
2023/12/21 14:24:00;;;;;;;6.40;3.40;;;11.50;62.30;;;;;;7755390;22;20061;-76
2023/12/21 14:27:01;;;;;;;11.05;4.30;;;11.50;62.40;;;;;;7807089;22;20108;-77
2023/12/21 14:30:03;;;;;;;9.60;4.30;;;11.60;62.10;;;;;;7779844;22;20305;-79
2023/12/21 14:33:04;;;;;;;5.90;2.70;;;11.50;61.90;;;;;;7779818;22;20018;-80
2023/12/21 14:36:05;;;;;;;11.45;4.03;;;11.60;61.90;;;;;;7808679;22;20345;-77
2023/12/21 14:39:06;;;;;;;7.50;4.00;;;11.50;61.80;;;;;;7779608;22;20142;-78
2023/12/21 14:42:10;;;;;;;6.68;2.97;;;11.50;61.90;;;;;;7780888;22;20067;-80
2023/12/21 14:45:11;;;;;;;9.70;4.60;;;11.50;62.10;;;;;;7729574;22;20011;-78
2023/12/21 14:48:14;;;;;;;26.80;5.32;;;11.40;62.10;;;;;;7779158;22;20395;-79
2023/12/21 14:51:16;;;;;;;8.13;4.53;;;11.30;62.30;;;;;;7753698;22;20123;-78
2023/12/21 14:54:19;;;;;;;7.43;4.18;;;11.30;63.30;;;;;;7779590;22;20082;-78
2023/12/21 14:57:22;;;;;;;6.68;4.07;;;11.30;62.60;;;;;;7807290;22;19991;-79
2023/12/21 15:00:24;;;;;;;6.25;4.22;;;11.40;62.50;;;;;;7753637;22;20055;-76
2023/12/21 15:03:25;;;;;;;7.00;4.05;;;11.30;62.50;;;;;;7779149;22;20023;-78
2023/12/21 15:06:27;;;;;;;20.10;4.63;;;11.30;62.40;;;;;;7780521;22;20386;-78
2023/12/21 15:09:28;;;;;;;13.27;5.80;;;11.40;62.50;;;;;;7782377;22;20018;-78
2023/12/21 15:12:29;;;;;;;10.77;4.18;;;11.40;62.60;;;;;;7759804;22;20093;-79
2023/12/21 15:15:31;;;;;;;15.77;4.35;;;11.40;62.50;;;;;;7760722;22;20487;-78
2023/12/21 15:18:34;;;;;;;7.90;3.95;;;11.40;62.50;;;;;;7759960;22;19999;-77
2023/12/21 15:21:36;;;;;;;12.10;5.45;;;11.40;62.30;;;;;;7761679;22;20085;-79
2023/12/21 15:24:38;;;;;;;8.93;3.88;;;11.30;62.20;;;;;;7790220;22;20093;-78
2023/12/21 15:27:42;;;;;;;7.10;4.50;;;11.30;62.30;;;;;;7762806;22;20477;-78
2023/12/21 15:30:43;;;;;;;12.32;4.78;;;11.40;62.50;;;;;;7791058;22;20018;-78
2023/12/21 15:33:44;;;;;;;10.52;3.78;;;11.30;62.60;;;;;;7785120;22;20108;-79
2023/12/21 15:36:46;;;;;;;10.45;4.47;;;11.30;62.70;;;;;;7735949;22;20007;-78
2023/12/21 15:39:47;;;;;;;12.45;5.50;;;11.30;62.70;;;;;;7763224;22;20081;-78
2023/12/21 15:42:48;;;;;;;8.68;3.95;;;11.30;62.70;;;;;;7766068;22;20104;-78
2023/12/21 15:45:49;;;;;;;8.73;4.95;;;11.40;62.50;;;;;;7791819;22;20026;-78
2023/12/21 15:48:50;;;;;;;15.00;5.32;;;11.40;62.50;;;;;;7763397;22;20000;-78